sensor_id;sensor_type;location;lat;lon;timestamp;P1;durP1;ratioP1;P2;durP2;ratioP2
28760;SDS011;15917;50.014;8.352;2023-02-15T00:01:31;97.17;;;31.73;;
28760;SDS011;15917;50.014;8.352;2023-02-15T00:03:57;109.13;;;35.60;;
28760;SDS011;15917;50.014;8.352;2023-02-15T00:06:23;114.15;;;39.10;;
28760;SDS011;15917;50.014;8.352;2023-02-15T00:08:49;114.05;;;33.33;;
28760;SDS011;15917;50.014;8.352;2023-02-15T00:11:16;115.03;;;32.95;;
28760;SDS011;15917;50.014;8.352;2023-02-15T00:14:06;122.90;;;32.33;;
28760;SDS011;15917;50.014;8.352;2023-02-15T00:16:33;120.30;;;32.83;;
28760;SDS011;15917;50.014;8.352;2023-02-15T00:19:00;97.28;;;29.73;;
28760;SDS011;15917;50.014;8.352;2023-02-15T00:21:28;113.15;;;34.70;;
28760;SDS011;15917;50.014;8.352;2023-02-15T00:23:55;110.50;;;34.30;;
28760;SDS011;15917;50.014;8.352;2023-02-15T00:26:25;98.75;;;31.13;;
28760;SDS011;15917;50.014;8.352;2023-02-15T00:28:51;106.80;;;32.13;;
28760;SDS011;15917;50.014;8.352;2023-02-15T00:31:18;109.85;;;32.15;;
28760;SDS011;15917;50.014;8.352;2023-02-15T00:33:44;122.53;;;32.45;;
28760;SDS011;15917;50.014;8.352;2023-02-15T00:36:09;104.78;;;33.25;;
28760;SDS011;15917;50.014;8.352;2023-02-15T00:38:35;119.25;;;32.85;;
28760;SDS011;15917;50.014;8.352;2023-02-15T00:41:03;103.13;;;32.97;;
28760;SDS011;15917;50.014;8.352;2023-02-15T00:43:30;108.90;;;31.17;;
28760;SDS011;15917;50.014;8.352;2023-02-15T00:45:57;119.20;;;35.63;;
28760;SDS011;15917;50.014;8.352;2023-02-15T00:48:23;109.38;;;33.83;;
28760;SDS011;15917;50.014;8.352;2023-02-15T00:50:50;112.13;;;34.65;;
28760;SDS011;15917;50.014;8.352;2023-02-15T00:53:18;115.88;;;34.42;;
28760;SDS011;15917;50.014;8.352;2023-02-15T00:55:45;111.30;;;32.25;;
28760;SDS011;15917;50.014;8.352;2023-02-15T00:58:11;112.05;;;34.67;;
28760;SDS011;15917;50.014;8.352;2023-02-15T01:00:38;124.68;;;34.72;;
28760;SDS011;15917;50.014;8.352;2023-02-15T01:03:04;119.80;;;34.25;;
28760;SDS011;15917;50.014;8.352;2023-02-15T01:05:31;107.25;;;31.33;;
28760;SDS011;15917;50.014;8.352;2023-02-15T01:07:57;100.43;;;31.45;;
28760;SDS011;15917;50.014;8.352;2023-02-15T01:10:23;95.97;;;30.75;;
28760;SDS011;15917;50.014;8.352;2023-02-15T01:12:50;102.07;;;31.35;;
28760;SDS011;15917;50.014;8.352;2023-02-15T01:15:16;110.07;;;32.13;;
28760;SDS011;15917;50.014;8.352;2023-02-15T01:17:42;105.80;;;32.65;;
28760;SDS011;15917;50.014;8.352;2023-02-15T01:20:10;100.18;;;31.17;;
28760;SDS011;15917;50.014;8.352;2023-02-15T01:22:36;107.55;;;33.28;;
28760;SDS011;15917;50.014;8.352;2023-02-15T01:25:02;117.95;;;33.15;;
28760;SDS011;15917;50.014;8.352;2023-02-15T01:27:28;112.72;;;33.58;;
28760;SDS011;15917;50.014;8.352;2023-02-15T01:29:56;115.65;;;35.05;;
28760;SDS011;15917;50.014;8.352;2023-02-15T01:32:21;105.13;;;32.17;;
28760;SDS011;15917;50.014;8.352;2023-02-15T01:34:47;115.72;;;32.40;;
28760;SDS011;15917;50.014;8.352;2023-02-15T01:37:13;116.32;;;34.47;;
28760;SDS011;15917;50.014;8.352;2023-02-15T01:39:40;118.57;;;35.00;;
28760;SDS011;15917;50.014;8.352;2023-02-15T01:42:09;121.22;;;34.33;;
28760;SDS011;15917;50.014;8.352;2023-02-15T01:44:46;121.20;;;35.08;;
28760;SDS011;15917;50.014;8.352;2023-02-15T01:47:13;95.60;;;31.95;;
28760;SDS011;15917;50.014;8.352;2023-02-15T01:49:43;105.43;;;33.20;;
28760;SDS011;15917;50.014;8.352;2023-02-15T01:52:12;103.75;;;31.90;;
28760;SDS011;15917;50.014;8.352;2023-02-15T01:54:42;100.60;;;31.45;;
28760;SDS011;15917;50.014;8.352;2023-02-15T01:57:13;112.10;;;33.10;;
28760;SDS011;15917;50.014;8.352;2023-02-15T01:59:45;103.97;;;30.58;;
28760;SDS011;15917;50.014;8.352;2023-02-15T02:02:15;99.35;;;31.85;;
28760;SDS011;15917;50.014;8.352;2023-02-15T02:04:49;109.68;;;32.78;;
28760;SDS011;15917;50.014;8.352;2023-02-15T02:07:18;101.38;;;30.88;;
28760;SDS011;15917;50.014;8.352;2023-02-15T02:12:10;99.13;;;31.00;;
28760;SDS011;15917;50.014;8.352;2023-02-15T02:14:38;113.03;;;31.92;;
28760;SDS011;15917;50.014;8.352;2023-02-15T02:17:07;99.20;;;33.28;;
28760;SDS011;15917;50.014;8.352;2023-02-15T02:22:55;93.15;;;30.48;;
28760;SDS011;15917;50.014;8.352;2023-02-15T02:34:21;99.90;;;28.13;;
28760;SDS011;15917;50.014;8.352;2023-02-15T02:37:01;95.68;;;31.85;;
28760;SDS011;15917;50.014;8.352;2023-02-15T02:39:52;104.63;;;31.98;;
28760;SDS011;15917;50.014;8.352;2023-02-15T02:45:11;102.38;;;30.63;;
28760;SDS011;15917;50.014;8.352;2023-02-15T02:47:46;103.20;;;31.85;;
28760;SDS011;15917;50.014;8.352;2023-02-15T02:50:22;96.25;;;33.67;;
28760;SDS011;15917;50.014;8.352;2023-02-15T02:52:51;97.38;;;30.45;;
28760;SDS011;15917;50.014;8.352;2023-02-15T02:55:20;107.03;;;31.08;;
28760;SDS011;15917;50.014;8.352;2023-02-15T02:57:55;105.25;;;32.03;;
28760;SDS011;15917;50.014;8.352;2023-02-15T03:00:27;95.07;;;30.65;;
28760;SDS011;15917;50.014;8.352;2023-02-15T03:03:04;111.10;;;30.45;;
28760;SDS011;15917;50.014;8.352;2023-02-15T03:05:38;105.85;;;32.78;;
28760;SDS011;15917;50.014;8.352;2023-02-15T03:08:06;95.65;;;30.52;;
28760;SDS011;15917;50.014;8.352;2023-02-15T03:10:35;95.90;;;28.90;;
28760;SDS011;15917;50.014;8.352;2023-02-15T03:13:04;92.10;;;29.60;;
28760;SDS011;15917;50.014;8.352;2023-02-15T03:15:31;96.10;;;30.30;;
28760;SDS011;15917;50.014;8.352;2023-02-15T03:18:26;107.70;;;31.20;;
28760;SDS011;15917;50.014;8.352;2023-02-15T03:20:57;91.13;;;29.95;;
28760;SDS011;15917;50.014;8.352;2023-02-15T03:23:27;92.57;;;30.95;;
28760;SDS011;15917;50.014;8.352;2023-02-15T03:25:56;93.33;;;29.83;;
28760;SDS011;15917;50.014;8.352;2023-02-15T03:28:43;93.38;;;32.65;;
28760;SDS011;15917;50.014;8.352;2023-02-15T03:31:13;91.22;;;28.98;;
28760;SDS011;15917;50.014;8.352;2023-02-15T03:33:40;95.05;;;29.23;;
28760;SDS011;15917;50.014;8.352;2023-02-15T03:36:18;91.63;;;30.00;;
28760;SDS011;15917;50.014;8.352;2023-02-15T03:39:12;94.78;;;29.90;;
28760;SDS011;15917;50.014;8.352;2023-02-15T03:41:54;100.60;;;30.95;;
28760;SDS011;15917;50.014;8.352;2023-02-15T03:47:20;92.13;;;30.15;;
28760;SDS011;15917;50.014;8.352;2023-02-15T03:49:53;106.00;;;32.65;;
28760;SDS011;15917;50.014;8.352;2023-02-15T03:52:59;103.28;;;32.50;;
28760;SDS011;15917;50.014;8.352;2023-02-15T03:55:28;104.43;;;31.17;;
28760;SDS011;15917;50.014;8.352;2023-02-15T03:57:54;101.78;;;30.70;;
28760;SDS011;15917;50.014;8.352;2023-02-15T04:00:39;103.72;;;32.15;;
28760;SDS011;15917;50.014;8.352;2023-02-15T04:03:43;103.25;;;30.92;;
28760;SDS011;15917;50.014;8.352;2023-02-15T04:06:14;98.35;;;30.85;;
28760;SDS011;15917;50.014;8.352;2023-02-15T04:08:40;90.75;;;30.33;;
28760;SDS011;15917;50.014;8.352;2023-02-15T04:11:24;88.63;;;31.08;;
28760;SDS011;15917;50.014;8.352;2023-02-15T04:13:50;86.28;;;31.13;;
28760;SDS011;15917;50.014;8.352;2023-02-15T04:16:21;101.00;;;33.40;;
28760;SDS011;15917;50.014;8.352;2023-02-15T04:18:48;89.00;;;31.50;;
28760;SDS011;15917;50.014;8.352;2023-02-15T04:21:32;91.40;;;33.08;;
28760;SDS011;15917;50.014;8.352;2023-02-15T04:24:17;84.18;;;30.60;;
28760;SDS011;15917;50.014;8.352;2023-02-15T04:27:02;86.85;;;29.25;;
28760;SDS011;15917;50.014;8.352;2023-02-15T04:29:29;100.15;;;30.92;;
28760;SDS011;15917;50.014;8.352;2023-02-15T04:31:56;159.50;;;28.63;;
28760;SDS011;15917;50.014;8.352;2023-02-15T04:34:23;131.45;;;30.98;;
28760;SDS011;15917;50.014;8.352;2023-02-15T04:36:49;104.15;;;30.23;;
28760;SDS011;15917;50.014;8.352;2023-02-15T04:39:15;102.50;;;30.70;;
28760;SDS011;15917;50.014;8.352;2023-02-15T04:41:42;135.63;;;30.30;;
28760;SDS011;15917;50.014;8.352;2023-02-15T04:44:09;92.80;;;29.42;;
28760;SDS011;15917;50.014;8.352;2023-02-15T04:46:35;98.03;;;32.90;;
28760;SDS011;15917;50.014;8.352;2023-02-15T04:49:01;94.03;;;30.42;;
28760;SDS011;15917;50.014;8.352;2023-02-15T04:51:26;108.82;;;32.03;;
28760;SDS011;15917;50.014;8.352;2023-02-15T04:53:52;104.70;;;32.05;;
28760;SDS011;15917;50.014;8.352;2023-02-15T04:56:18;110.03;;;31.75;;
28760;SDS011;15917;50.014;8.352;2023-02-15T04:58:44;100.20;;;31.42;;
28760;SDS011;15917;50.014;8.352;2023-02-15T05:01:10;117.90;;;32.42;;
28760;SDS011;15917;50.014;8.352;2023-02-15T05:03:36;108.53;;;31.48;;
28760;SDS011;15917;50.014;8.352;2023-02-15T05:06:02;150.32;;;32.95;;
28760;SDS011;15917;50.014;8.352;2023-02-15T05:08:28;123.78;;;33.63;;
28760;SDS011;15917;50.014;8.352;2023-02-15T05:10:54;122.25;;;33.88;;
28760;SDS011;15917;50.014;8.352;2023-02-15T05:13:19;126.68;;;34.30;;
28760;SDS011;15917;50.014;8.352;2023-02-15T05:15:49;162.20;;;30.35;;
28760;SDS011;15917;50.014;8.352;2023-02-15T05:18:16;216.07;;;31.63;;
28760;SDS011;15917;50.014;8.352;2023-02-15T05:20:42;127.43;;;30.20;;
28760;SDS011;15917;50.014;8.352;2023-02-15T05:23:08;112.55;;;29.60;;
28760;SDS011;15917;50.014;8.352;2023-02-15T05:25:34;179.02;;;32.28;;
28760;SDS011;15917;50.014;8.352;2023-02-15T05:28:18;157.85;;;27.90;;
28760;SDS011;15917;50.014;8.352;2023-02-15T05:30:45;216.93;;;30.67;;
28760;SDS011;15917;50.014;8.352;2023-02-15T05:33:14;244.70;;;31.75;;
28760;SDS011;15917;50.014;8.352;2023-02-15T05:35:40;136.25;;;30.55;;
28760;SDS011;15917;50.014;8.352;2023-02-15T05:38:06;161.90;;;32.28;;
28760;SDS011;15917;50.014;8.352;2023-02-15T05:40:31;162.82;;;28.88;;
28760;SDS011;15917;50.014;8.352;2023-02-15T05:42:57;96.85;;;29.63;;
28760;SDS011;15917;50.014;8.352;2023-02-15T05:45:23;154.60;;;30.40;;
28760;SDS011;15917;50.014;8.352;2023-02-15T05:47:49;105.00;;;29.65;;
28760;SDS011;15917;50.014;8.352;2023-02-15T05:50:14;110.35;;;30.35;;
28760;SDS011;15917;50.014;8.352;2023-02-15T05:52:40;133.75;;;32.38;;
28760;SDS011;15917;50.014;8.352;2023-02-15T05:55:06;153.20;;;30.00;;
28760;SDS011;15917;50.014;8.352;2023-02-15T05:57:34;193.25;;;28.05;;
28760;SDS011;15917;50.014;8.352;2023-02-15T06:00:00;112.30;;;29.65;;
28760;SDS011;15917;50.014;8.352;2023-02-15T06:02:36;134.15;;;27.10;;
28760;SDS011;15917;50.014;8.352;2023-02-15T06:05:03;137.02;;;28.10;;
28760;SDS011;15917;50.014;8.352;2023-02-15T06:07:30;114.60;;;28.65;;
28760;SDS011;15917;50.014;8.352;2023-02-15T06:09:55;97.80;;;27.35;;
28760;SDS011;15917;50.014;8.352;2023-02-15T06:12:21;99.82;;;28.45;;
28760;SDS011;15917;50.014;8.352;2023-02-15T06:14:47;102.20;;;26.42;;
28760;SDS011;15917;50.014;8.352;2023-02-15T06:17:12;104.53;;;26.45;;
28760;SDS011;15917;50.014;8.352;2023-02-15T06:19:38;93.38;;;25.30;;
28760;SDS011;15917;50.014;8.352;2023-02-15T06:22:03;92.43;;;27.08;;
28760;SDS011;15917;50.014;8.352;2023-02-15T06:24:31;116.40;;;28.88;;
28760;SDS011;15917;50.014;8.352;2023-02-15T06:26:57;113.20;;;26.85;;
28760;SDS011;15917;50.014;8.352;2023-02-15T06:29:22;72.13;;;22.13;;
28760;SDS011;15917;50.014;8.352;2023-02-15T06:31:48;99.05;;;26.15;;
28760;SDS011;15917;50.014;8.352;2023-02-15T06:34:14;106.55;;;28.35;;
28760;SDS011;15917;50.014;8.352;2023-02-15T06:36:39;77.97;;;25.58;;
28760;SDS011;15917;50.014;8.352;2023-02-15T06:39:05;83.50;;;24.35;;
28760;SDS011;15917;50.014;8.352;2023-02-15T06:41:31;90.13;;;23.35;;
28760;SDS011;15917;50.014;8.352;2023-02-15T06:43:57;76.80;;;22.42;;
28760;SDS011;15917;50.014;8.352;2023-02-15T06:46:22;69.40;;;23.75;;
28760;SDS011;15917;50.014;8.352;2023-02-15T06:48:48;81.07;;;24.90;;
28760;SDS011;15917;50.014;8.352;2023-02-15T06:51:13;87.53;;;23.83;;
28760;SDS011;15917;50.014;8.352;2023-02-15T06:53:39;77.30;;;25.13;;
28760;SDS011;15917;50.014;8.352;2023-02-15T06:56:07;85.68;;;24.88;;
28760;SDS011;15917;50.014;8.352;2023-02-15T06:58:40;77.05;;;24.48;;
28760;SDS011;15917;50.014;8.352;2023-02-15T07:01:07;79.55;;;25.77;;
28760;SDS011;15917;50.014;8.352;2023-02-15T07:03:34;85.38;;;25.13;;
28760;SDS011;15917;50.014;8.352;2023-02-15T07:06:00;75.65;;;25.58;;
28760;SDS011;15917;50.014;8.352;2023-02-15T07:10:54;80.22;;;21.88;;
28760;SDS011;15917;50.014;8.352;2023-02-15T07:13:40;80.13;;;23.42;;
28760;SDS011;15917;50.014;8.352;2023-02-15T07:16:07;110.30;;;24.77;;
28760;SDS011;15917;50.014;8.352;2023-02-15T07:18:34;83.03;;;24.90;;
28760;SDS011;15917;50.014;8.352;2023-02-15T07:21:00;93.18;;;24.73;;
28760;SDS011;15917;50.014;8.352;2023-02-15T07:23:25;76.93;;;23.75;;
28760;SDS011;15917;50.014;8.352;2023-02-15T07:25:57;79.30;;;23.83;;
28760;SDS011;15917;50.014;8.352;2023-02-15T07:28:23;94.13;;;24.88;;
28760;SDS011;15917;50.014;8.352;2023-02-15T07:30:49;81.78;;;24.98;;
28760;SDS011;15917;50.014;8.352;2023-02-15T07:33:15;86.57;;;26.13;;
28760;SDS011;15917;50.014;8.352;2023-02-15T07:35:56;73.40;;;25.50;;
28760;SDS011;15917;50.014;8.352;2023-02-15T07:38:24;65.95;;;24.08;;
28760;SDS011;15917;50.014;8.352;2023-02-15T07:40:51;100.63;;;24.33;;
28760;SDS011;15917;50.014;8.352;2023-02-15T07:43:22;65.93;;;22.35;;
28760;SDS011;15917;50.014;8.352;2023-02-15T07:45:47;68.40;;;22.02;;
28760;SDS011;15917;50.014;8.352;2023-02-15T07:48:13;72.70;;;22.67;;
28760;SDS011;15917;50.014;8.352;2023-02-15T07:50:38;55.08;;;19.48;;
28760;SDS011;15917;50.014;8.352;2023-02-15T07:53:04;57.58;;;20.10;;
28760;SDS011;15917;50.014;8.352;2023-02-15T07:55:30;64.95;;;21.00;;
28760;SDS011;15917;50.014;8.352;2023-02-15T07:57:55;66.22;;;21.33;;
28760;SDS011;15917;50.014;8.352;2023-02-15T08:00:21;84.28;;;24.98;;
28760;SDS011;15917;50.014;8.352;2023-02-15T08:02:58;67.10;;;23.17;;
28760;SDS011;15917;50.014;8.352;2023-02-15T08:05:39;75.75;;;24.42;;
28760;SDS011;15917;50.014;8.352;2023-02-15T08:08:07;63.83;;;20.98;;
28760;SDS011;15917;50.014;8.352;2023-02-15T08:10:34;86.72;;;22.50;;
28760;SDS011;15917;50.014;8.352;2023-02-15T08:13:18;68.80;;;21.83;;
28760;SDS011;15917;50.014;8.352;2023-02-15T08:15:48;69.25;;;22.52;;
28760;SDS011;15917;50.014;8.352;2023-02-15T08:18:14;61.70;;;20.90;;
28760;SDS011;15917;50.014;8.352;2023-02-15T08:20:40;69.25;;;21.63;;
28760;SDS011;15917;50.014;8.352;2023-02-15T08:23:06;66.35;;;23.20;;
28760;SDS011;15917;50.014;8.352;2023-02-15T08:25:31;71.38;;;21.42;;
28760;SDS011;15917;50.014;8.352;2023-02-15T08:27:57;58.35;;;19.75;;
28760;SDS011;15917;50.014;8.352;2023-02-15T08:30:22;62.30;;;21.38;;
28760;SDS011;15917;50.014;8.352;2023-02-15T08:32:48;59.13;;;17.63;;
28760;SDS011;15917;50.014;8.352;2023-02-15T08:35:13;58.38;;;19.90;;
28760;SDS011;15917;50.014;8.352;2023-02-15T08:37:39;53.15;;;18.30;;
28760;SDS011;15917;50.014;8.352;2023-02-15T08:40:05;49.45;;;18.27;;
28760;SDS011;15917;50.014;8.352;2023-02-15T08:42:35;51.60;;;18.02;;
28760;SDS011;15917;50.014;8.352;2023-02-15T08:45:00;46.75;;;16.17;;
28760;SDS011;15917;50.014;8.352;2023-02-15T08:47:26;55.92;;;17.95;;
28760;SDS011;15917;50.014;8.352;2023-02-15T08:49:52;60.80;;;17.98;;
28760;SDS011;15917;50.014;8.352;2023-02-15T08:52:17;55.90;;;17.75;;
28760;SDS011;15917;50.014;8.352;2023-02-15T08:54:43;59.08;;;19.98;;
28760;SDS011;15917;50.014;8.352;2023-02-15T08:57:09;53.08;;;17.40;;
28760;SDS011;15917;50.014;8.352;2023-02-15T08:59:35;52.70;;;18.45;;
28760;SDS011;15917;50.014;8.352;2023-02-15T09:02:01;61.83;;;20.55;;
28760;SDS011;15917;50.014;8.352;2023-02-15T09:04:27;51.95;;;18.08;;
28760;SDS011;15917;50.014;8.352;2023-02-15T09:06:53;55.63;;;19.02;;
28760;SDS011;15917;50.014;8.352;2023-02-15T09:09:20;50.08;;;17.98;;
28760;SDS011;15917;50.014;8.352;2023-02-15T09:11:47;60.92;;;18.92;;
28760;SDS011;15917;50.014;8.352;2023-02-15T09:14:16;60.15;;;19.08;;
28760;SDS011;15917;50.014;8.352;2023-02-15T09:16:45;67.82;;;21.52;;
28760;SDS011;15917;50.014;8.352;2023-02-15T09:19:13;68.28;;;22.23;;
28760;SDS011;15917;50.014;8.352;2023-02-15T09:21:43;59.78;;;21.95;;
28760;SDS011;15917;50.014;8.352;2023-02-15T09:24:11;71.10;;;23.15;;
28760;SDS011;15917;50.014;8.352;2023-02-15T09:26:39;57.78;;;18.23;;
28760;SDS011;15917;50.014;8.352;2023-02-15T09:29:07;56.08;;;18.17;;
28760;SDS011;15917;50.014;8.352;2023-02-15T09:31:37;50.28;;;19.10;;
28760;SDS011;15917;50.014;8.352;2023-02-15T09:34:06;55.97;;;18.77;;
28760;SDS011;15917;50.014;8.352;2023-02-15T09:36:33;59.63;;;19.80;;
28760;SDS011;15917;50.014;8.352;2023-02-15T09:39:01;62.97;;;20.23;;
28760;SDS011;15917;50.014;8.352;2023-02-15T09:50:50;64.53;;;21.20;;
28760;SDS011;15917;50.014;8.352;2023-02-15T09:53:36;64.75;;;21.65;;
28760;SDS011;15917;50.014;8.352;2023-02-15T09:59:23;81.00;;;24.50;;
28760;SDS011;15917;50.014;8.352;2023-02-15T10:10:06;57.13;;;21.00;;
28760;SDS011;15917;50.014;8.352;2023-02-15T10:15:38;37.80;;;13.48;;
28760;SDS011;15917;50.014;8.352;2023-02-15T10:18:31;83.88;;;26.77;;
28760;SDS011;15917;50.014;8.352;2023-02-15T10:24:25;81.60;;;25.70;;
28760;SDS011;15917;50.014;8.352;2023-02-15T10:27:12;73.45;;;25.05;;
28760;SDS011;15917;50.014;8.352;2023-02-15T10:29:47;66.20;;;22.92;;
28760;SDS011;15917;50.014;8.352;2023-02-15T10:32:41;65.13;;;23.77;;
28760;SDS011;15917;50.014;8.352;2023-02-15T10:41:16;68.40;;;23.42;;
28760;SDS011;15917;50.014;8.352;2023-02-15T10:44:05;66.07;;;22.80;;
28760;SDS011;15917;50.014;8.352;2023-02-15T10:52:28;65.22;;;23.23;;
28760;SDS011;15917;50.014;8.352;2023-02-15T10:55:09;72.85;;;22.95;;
28760;SDS011;15917;50.014;8.352;2023-02-15T10:58:01;67.15;;;24.58;;
28760;SDS011;15917;50.014;8.352;2023-02-15T11:00:42;71.20;;;25.67;;
28760;SDS011;15917;50.014;8.352;2023-02-15T11:06:07;65.43;;;24.05;;
28760;SDS011;15917;50.014;8.352;2023-02-15T11:08:39;68.20;;;22.92;;
28760;SDS011;15917;50.014;8.352;2023-02-15T11:11:21;63.97;;;23.48;;
28760;SDS011;15917;50.014;8.352;2023-02-15T11:16:41;62.92;;;22.70;;
28760;SDS011;15917;50.014;8.352;2023-02-15T11:19:13;62.95;;;21.83;;
28760;SDS011;15917;50.014;8.352;2023-02-15T11:21:48;69.25;;;23.00;;
28760;SDS011;15917;50.014;8.352;2023-02-15T11:24:17;73.93;;;24.17;;
28760;SDS011;15917;50.014;8.352;2023-02-15T11:26:57;68.78;;;24.73;;
28760;SDS011;15917;50.014;8.352;2023-02-15T11:29:32;63.53;;;23.05;;
28760;SDS011;15917;50.014;8.352;2023-02-15T11:32:12;68.18;;;25.00;;
28760;SDS011;15917;50.014;8.352;2023-02-15T11:34:48;74.85;;;23.35;;
28760;SDS011;15917;50.014;8.352;2023-02-15T11:40:02;82.17;;;24.00;;
28760;SDS011;15917;50.014;8.352;2023-02-15T11:42:37;79.72;;;25.23;;
28760;SDS011;15917;50.014;8.352;2023-02-15T11:45:19;72.70;;;26.67;;
28760;SDS011;15917;50.014;8.352;2023-02-15T11:47:50;89.45;;;28.40;;
28760;SDS011;15917;50.014;8.352;2023-02-15T11:50:16;88.10;;;27.77;;
28760;SDS011;15917;50.014;8.352;2023-02-15T11:52:56;74.57;;;24.95;;
28760;SDS011;15917;50.014;8.352;2023-02-15T11:55:25;76.90;;;24.75;;
28760;SDS011;15917;50.014;8.352;2023-02-15T11:58:04;74.20;;;26.60;;
28760;SDS011;15917;50.014;8.352;2023-02-15T12:00:48;64.57;;;23.15;;
28760;SDS011;15917;50.014;8.352;2023-02-15T12:03:21;65.47;;;22.23;;
28760;SDS011;15917;50.014;8.352;2023-02-15T12:05:57;67.57;;;23.60;;
28760;SDS011;15917;50.014;8.352;2023-02-15T12:08:26;63.08;;;23.00;;
28760;SDS011;15917;50.014;8.352;2023-02-15T12:11:07;68.68;;;24.63;;
28760;SDS011;15917;50.014;8.352;2023-02-15T12:13:33;72.65;;;25.00;;
28760;SDS011;15917;50.014;8.352;2023-02-15T12:15:58;69.50;;;24.10;;
28760;SDS011;15917;50.014;8.352;2023-02-15T12:18:38;68.03;;;24.85;;
28760;SDS011;15917;50.014;8.352;2023-02-15T12:21:25;68.53;;;23.15;;
28760;SDS011;15917;50.014;8.352;2023-02-15T12:24:18;69.57;;;26.00;;
28760;SDS011;15917;50.014;8.352;2023-02-15T12:26:44;75.18;;;25.50;;
28760;SDS011;15917;50.014;8.352;2023-02-15T12:29:20;76.65;;;26.33;;
28760;SDS011;15917;50.014;8.352;2023-02-15T12:31:51;80.93;;;26.77;;
28760;SDS011;15917;50.014;8.352;2023-02-15T12:34:27;92.38;;;28.08;;
28760;SDS011;15917;50.014;8.352;2023-02-15T12:39:26;85.53;;;28.60;;
28760;SDS011;15917;50.014;8.352;2023-02-15T12:42:00;85.00;;;28.67;;
28760;SDS011;15917;50.014;8.352;2023-02-15T12:44:39;95.97;;;30.40;;
28760;SDS011;15917;50.014;8.352;2023-02-15T12:47:19;100.40;;;31.00;;
28760;SDS011;15917;50.014;8.352;2023-02-15T12:50:05;89.22;;;31.20;;
28760;SDS011;15917;50.014;8.352;2023-02-15T12:52:51;84.22;;;29.27;;
28760;SDS011;15917;50.014;8.352;2023-02-15T12:55:30;80.10;;;27.20;;
28760;SDS011;15917;50.014;8.352;2023-02-15T12:58:12;84.20;;;28.67;;
28760;SDS011;15917;50.014;8.352;2023-02-15T13:00:42;91.25;;;30.20;;
28760;SDS011;15917;50.014;8.352;2023-02-15T13:03:15;88.85;;;29.80;;
28760;SDS011;15917;50.014;8.352;2023-02-15T13:05:46;82.50;;;28.73;;
28760;SDS011;15917;50.014;8.352;2023-02-15T13:08:17;76.63;;;27.55;;
28760;SDS011;15917;50.014;8.352;2023-02-15T13:13:58;75.15;;;27.77;;
28760;SDS011;15917;50.014;8.352;2023-02-15T13:16:44;79.45;;;30.13;;
28760;SDS011;15917;50.014;8.352;2023-02-15T13:19:14;84.70;;;31.90;;
28760;SDS011;15917;50.014;8.352;2023-02-15T13:21:47;91.15;;;30.98;;
28760;SDS011;15917;50.014;8.352;2023-02-15T13:24:24;93.35;;;33.60;;
28760;SDS011;15917;50.014;8.352;2023-02-15T13:27:02;96.78;;;34.08;;
28760;SDS011;15917;50.014;8.352;2023-02-15T13:29:30;101.75;;;35.35;;
28760;SDS011;15917;50.014;8.352;2023-02-15T13:32:00;108.63;;;38.13;;
28760;SDS011;15917;50.014;8.352;2023-02-15T13:34:33;118.57;;;39.67;;
28760;SDS011;15917;50.014;8.352;2023-02-15T13:37:06;116.10;;;43.05;;
28760;SDS011;15917;50.014;8.352;2023-02-15T13:42:34;125.85;;;41.78;;
28760;SDS011;15917;50.014;8.352;2023-02-15T13:51:46;109.72;;;40.40;;
28760;SDS011;15917;50.014;8.352;2023-02-15T13:57:18;95.53;;;34.83;;
28760;SDS011;15917;50.014;8.352;2023-02-15T14:05:37;73.85;;;29.70;;
28760;SDS011;15917;50.014;8.352;2023-02-15T14:08:13;79.07;;;28.92;;
28760;SDS011;15917;50.014;8.352;2023-02-15T14:16:24;77.60;;;29.52;;
28760;SDS011;15917;50.014;8.352;2023-02-15T14:21:48;78.05;;;30.48;;
28760;SDS011;15917;50.014;8.352;2023-02-15T14:30:00;74.05;;;27.15;;
28760;SDS011;15917;50.014;8.352;2023-02-15T14:32:32;79.82;;;27.48;;
28760;SDS011;15917;50.014;8.352;2023-02-15T14:35:05;74.13;;;28.90;;
28760;SDS011;15917;50.014;8.352;2023-02-15T14:37:52;67.57;;;26.98;;
28760;SDS011;15917;50.014;8.352;2023-02-15T14:40:40;78.88;;;32.17;;
28760;SDS011;15917;50.014;8.352;2023-02-15T14:47:18;68.50;;;27.17;;
28760;SDS011;15917;50.014;8.352;2023-02-15T14:49:57;62.72;;;26.88;;
28760;SDS011;15917;50.014;8.352;2023-02-15T14:52:23;61.50;;;27.58;;
28760;SDS011;15917;50.014;8.352;2023-02-15T15:04:35;81.15;;;29.27;;
28760;SDS011;15917;50.014;8.352;2023-02-15T15:07:20;81.85;;;31.80;;
28760;SDS011;15917;50.014;8.352;2023-02-15T15:09:58;84.18;;;31.23;;
28760;SDS011;15917;50.014;8.352;2023-02-15T15:14:58;83.57;;;33.90;;
28760;SDS011;15917;50.014;8.352;2023-02-15T15:20:49;95.05;;;34.20;;
28760;SDS011;15917;50.014;8.352;2023-02-15T15:25:46;99.70;;;33.67;;
28760;SDS011;15917;50.014;8.352;2023-02-15T15:31:00;87.05;;;34.53;;
28760;SDS011;15917;50.014;8.352;2023-02-15T15:33:54;85.07;;;32.22;;
28760;SDS011;15917;50.014;8.352;2023-02-15T15:42:38;91.53;;;33.35;;
28760;SDS011;15917;50.014;8.352;2023-02-15T15:45:30;89.28;;;33.88;;
28760;SDS011;15917;50.014;8.352;2023-02-15T15:50:57;88.50;;;33.05;;
28760;SDS011;15917;50.014;8.352;2023-02-15T15:53:43;92.65;;;36.30;;
28760;SDS011;15917;50.014;8.352;2023-02-15T15:56:15;87.03;;;36.55;;
28760;SDS011;15917;50.014;8.352;2023-02-15T15:58:50;84.10;;;34.83;;
28760;SDS011;15917;50.014;8.352;2023-02-15T16:01:29;83.47;;;33.33;;
28760;SDS011;15917;50.014;8.352;2023-02-15T16:03:59;82.95;;;33.13;;
28760;SDS011;15917;50.014;8.352;2023-02-15T16:06:33;91.88;;;33.75;;
28760;SDS011;15917;50.014;8.352;2023-02-15T16:09:17;90.32;;;36.45;;
28760;SDS011;15917;50.014;8.352;2023-02-15T16:11:52;86.78;;;37.00;;
28760;SDS011;15917;50.014;8.352;2023-02-15T16:14:30;107.47;;;43.63;;
28760;SDS011;15917;50.014;8.352;2023-02-15T16:17:00;96.43;;;37.70;;
28760;SDS011;15917;50.014;8.352;2023-02-15T16:19:30;88.80;;;35.95;;
28760;SDS011;15917;50.014;8.352;2023-02-15T16:22:03;84.28;;;34.35;;
28760;SDS011;15917;50.014;8.352;2023-02-15T16:24:34;86.95;;;35.75;;
28760;SDS011;15917;50.014;8.352;2023-02-15T16:29:39;76.78;;;33.00;;
28760;SDS011;15917;50.014;8.352;2023-02-15T16:32:19;91.68;;;36.33;;
28760;SDS011;15917;50.014;8.352;2023-02-15T16:35:12;79.78;;;33.17;;
28760;SDS011;15917;50.014;8.352;2023-02-15T16:37:43;75.63;;;31.73;;
28760;SDS011;15917;50.014;8.352;2023-02-15T16:40:45;77.00;;;32.55;;
28760;SDS011;15917;50.014;8.352;2023-02-15T16:43:05;71.57;;;30.63;;
28760;SDS011;15917;50.014;8.352;2023-02-15T16:45:38;92.55;;;34.58;;
28760;SDS011;15917;50.014;8.352;2023-02-15T16:48:05;78.85;;;32.40;;
28760;SDS011;15917;50.014;8.352;2023-02-15T16:50:37;78.40;;;32.00;;
28760;SDS011;15917;50.014;8.352;2023-02-15T16:53:04;82.70;;;32.63;;
28760;SDS011;15917;50.014;8.352;2023-02-15T16:55:35;80.65;;;32.88;;
28760;SDS011;15917;50.014;8.352;2023-02-15T16:58:06;81.28;;;33.67;;
28760;SDS011;15917;50.014;8.352;2023-02-15T17:00:38;77.35;;;31.60;;
28760;SDS011;15917;50.014;8.352;2023-02-15T17:13:28;75.68;;;25.83;;
28760;SDS011;15917;50.014;8.352;2023-02-15T17:18:29;93.82;;;35.80;;
28760;SDS011;15917;50.014;8.352;2023-02-15T17:20:59;80.93;;;31.90;;